createdAt,value
2022-10-20T00:01:17.015Z,79.10
2022-10-20T00:03:44.846Z,79.20
2022-10-20T00:06:25.186Z,79.20
2022-10-20T00:08:54.324Z,79.30
2022-10-20T00:11:23.938Z,79.30
2022-10-20T00:13:53.695Z,79.40
2022-10-20T00:16:21.544Z,79.30
2022-10-20T00:18:49.193Z,79.30
2022-10-20T00:21:24.275Z,79.40
2022-10-20T00:23:51.720Z,79.60
2022-10-20T00:26:24.773Z,79.40
2022-10-20T00:28:52.980Z,79.30
2022-10-20T00:31:22.323Z,79.20
2022-10-20T00:33:49.581Z,79.20
2022-10-20T00:36:20.060Z,79.30
2022-10-20T00:38:47.176Z,79.30
2022-10-20T00:41:20.912Z,80.00
2022-10-20T00:44:01.686Z,79.50
2022-10-20T00:46:39.563Z,79.60
2022-10-20T00:49:22.605Z,79.50
2022-10-20T00:51:54.777Z,79.60
2022-10-20T00:54:26.072Z,79.40
2022-10-20T00:56:56.140Z,79.60
2022-10-20T00:59:30.248Z,79.70
2022-10-20T01:02:00.026Z,79.80
2022-10-20T01:04:30.466Z,79.80
2022-10-20T01:06:58.787Z,79.90
2022-10-20T01:09:26.016Z,80.00
2022-10-20T01:12:10.478Z,80.00
2022-10-20T01:14:49.017Z,80.40
2022-10-20T01:17:42.861Z,80.40
2022-10-20T01:20:36.943Z,80.50
2022-10-20T01:23:24.097Z,80.50
2022-10-20T01:26:16.888Z,80.60
2022-10-20T01:29:01.192Z,80.80
2022-10-20T01:32:03.675Z,80.80
2022-10-20T01:34:32.997Z,80.90
2022-10-20T01:37:28.137Z,80.50
2022-10-20T01:40:31.940Z,80.60
2022-10-20T01:43:04.984Z,80.70
2022-10-20T01:45:35.456Z,80.60
2022-10-20T01:48:06.958Z,80.50
2022-10-20T01:50:35.921Z,80.50
2022-10-20T01:53:03.986Z,80.60
2022-10-20T01:55:31.657Z,80.60
2022-10-20T01:58:10.373Z,80.60
2022-10-20T02:00:39.362Z,80.60
2022-10-20T02:03:47.108Z,80.60
2022-10-20T02:07:09.696Z,80.80
2022-10-20T02:09:44.494Z,80.60
2022-10-20T02:12:22.736Z,80.40
2022-10-20T02:14:50.832Z,80.30
2022-10-20T02:17:20.134Z,80.30
2022-10-20T02:19:50.502Z,80.30
2022-10-20T02:22:19.557Z,80.30
2022-10-20T02:24:47.964Z,80.40
2022-10-20T02:27:30.847Z,80.50
2022-10-20T02:30:04.225Z,80.50
2022-10-20T02:32:33.844Z,80.50
2022-10-20T02:35:06.759Z,80.70
2022-10-20T02:37:34.559Z,80.60
2022-10-20T02:40:01.826Z,80.80
2022-10-20T02:42:29.334Z,81.00
2022-10-20T02:44:56.217Z,81.00
2022-10-20T02:47:23.415Z,81.10
2022-10-20T02:49:50.213Z,81.80
2022-10-20T02:52:17.186Z,81.10
2022-10-20T02:54:44.340Z,81.10
2022-10-20T02:57:11.156Z,81.10
2022-10-20T02:59:38.225Z,81.10
2022-10-20T03:02:05.364Z,81.20
2022-10-20T03:04:32.201Z,81.20
2022-10-20T03:06:59.644Z,81.20
2022-10-20T03:09:26.618Z,81.20
2022-10-20T03:11:53.875Z,81.20
2022-10-20T03:14:20.700Z,81.20
2022-10-20T03:16:47.764Z,81.20
2022-10-20T03:19:14.638Z,81.20
2022-10-20T03:21:41.510Z,81.20
2022-10-20T03:24:08.920Z,81.20
2022-10-20T03:26:36.210Z,81.10
2022-10-20T03:29:03.420Z,81.30
2022-10-20T03:31:30.289Z,81.40
2022-10-20T03:33:57.116Z,81.40
2022-10-20T03:36:24.365Z,81.40
2022-10-20T03:38:51.230Z,81.40
2022-10-20T03:41:20.218Z,81.50
2022-10-20T03:43:47.041Z,81.50
2022-10-20T03:46:13.971Z,81.50
2022-10-20T03:48:41.440Z,81.40
2022-10-20T03:51:11.570Z,81.50
2022-10-20T03:53:39.056Z,81.30
2022-10-20T03:56:16.087Z,81.30
2022-10-20T03:58:42.904Z,81.20
2022-10-20T04:01:15.992Z,81.10
2022-10-20T04:03:44.834Z,81.20
2022-10-20T04:06:15.957Z,81.20
2022-10-20T04:08:43.034Z,81.30
2022-10-20T04:11:10.110Z,81.20
2022-10-20T04:13:37.296Z,81.30
2022-10-20T04:16:04.240Z,81.20
2022-10-20T04:21:25.700Z,81.30
2022-10-20T04:23:52.833Z,81.30
2022-10-20T04:26:19.916Z,81.30
2022-10-20T04:28:47.272Z,81.40
2022-10-20T04:31:14.278Z,81.40
2022-10-20T04:33:41.199Z,81.50
2022-10-20T04:36:12.445Z,81.60
2022-10-20T04:38:39.703Z,81.60
2022-10-20T04:41:06.736Z,81.70
2022-10-20T04:43:34.866Z,81.90
2022-10-20T04:46:08.361Z,82.00
2022-10-20T04:48:37.462Z,82.00
2022-10-20T04:51:11.154Z,82.00
2022-10-20T04:53:38.753Z,82.00
2022-10-20T04:56:08.740Z,82.10
2022-10-20T04:58:42.232Z,82.20
2022-10-20T05:01:10.138Z,82.20
2022-10-20T05:03:43.605Z,82.30
2022-10-20T05:06:32.796Z,82.30
2022-10-20T05:09:05.479Z,82.40
2022-10-20T05:11:36.715Z,82.30
2022-10-20T05:14:03.860Z,82.40
2022-10-20T05:16:31.126Z,82.40
2022-10-20T05:18:58.168Z,82.50
2022-10-20T05:21:29.165Z,82.60
2022-10-20T05:24:02.581Z,82.60
2022-10-20T05:26:34.422Z,82.60
2022-10-20T05:29:04.059Z,82.60
2022-10-20T05:31:30.972Z,82.60
2022-10-20T05:33:58.074Z,82.70
2022-10-20T05:36:27.430Z,82.70
2022-10-20T05:38:56.117Z,82.80
2022-10-20T05:41:33.434Z,82.80
2022-10-20T05:44:06.188Z,82.90
2022-10-20T05:46:37.805Z,83.00
2022-10-20T05:49:04.866Z,83.10
2022-10-20T05:51:35.532Z,83.10
2022-10-20T05:54:03.555Z,83.20
2022-10-20T05:59:28.632Z,83.30
2022-10-20T06:01:55.469Z,83.30
2022-10-20T06:04:24.152Z,83.30
2022-10-20T06:06:53.050Z,83.30
2022-10-20T06:09:21.670Z,83.30
2022-10-20T06:11:49.845Z,83.50
2022-10-20T06:14:17.653Z,83.50
2022-10-20T06:16:44.833Z,83.50
2022-10-20T06:19:11.924Z,83.60
2022-10-20T06:21:38.923Z,83.60
2022-10-20T06:24:07.286Z,83.60
2022-10-20T06:26:38.405Z,83.80
2022-10-20T06:29:09.787Z,83.90
2022-10-20T06:31:42.766Z,84.00
2022-10-20T06:34:14.117Z,84.10
2022-10-20T06:36:42.183Z,84.20
2022-10-20T06:39:13.630Z,84.50
2022-10-20T06:41:41.325Z,84.90
2022-10-20T06:44:20.193Z,85.70
2022-10-20T06:46:47.481Z,86.70
2022-10-20T06:49:15.353Z,87.80
2022-10-20T06:51:44.184Z,89.00
2022-10-20T06:54:11.610Z,90.00
2022-10-20T06:56:39.953Z,90.50
2022-10-20T06:59:07.606Z,90.90
2022-10-20T07:01:37.138Z,91.30
2022-10-20T07:04:11.686Z,91.60
2022-10-20T07:06:41.852Z,91.90
2022-10-20T07:09:14.776Z,91.90
2022-10-20T07:11:42.564Z,91.50
2022-10-20T07:14:13.573Z,91.10
2022-10-20T07:16:40.827Z,90.30
2022-10-20T07:19:07.814Z,89.40
2022-10-20T07:21:39.146Z,88.00
2022-10-20T07:24:07.953Z,86.40
2022-10-20T07:26:39.495Z,85.50
2022-10-20T07:29:06.901Z,84.00
2022-10-20T07:31:41.957Z,82.80
2022-10-20T07:34:24.376Z,80.90
2022-10-20T07:36:53.087Z,79.30
2022-10-20T07:39:20.199Z,77.70
2022-10-20T07:41:48.036Z,76.40
2022-10-20T07:44:16.228Z,75.00
2022-10-20T07:49:50.226Z,72.10
2022-10-20T07:52:18.318Z,70.80
2022-10-20T07:54:45.574Z,69.50
2022-10-20T07:57:12.595Z,67.70
2022-10-20T07:59:39.591Z,66.50
2022-10-20T08:02:06.732Z,65.20
2022-10-20T08:04:36.981Z,64.00
2022-10-20T08:07:03.892Z,62.90
2022-10-20T08:09:30.790Z,62.00
2022-10-20T08:11:57.600Z,60.70
2022-10-20T08:14:27.287Z,59.40
2022-10-20T08:16:57.471Z,58.30
2022-10-20T08:22:05.913Z,56.20
2022-10-20T08:24:32.752Z,56.10
2022-10-20T08:27:01.938Z,55.10
2022-10-20T08:29:30.213Z,53.50
2022-10-20T08:31:58.332Z,52.10
2022-10-20T08:34:26.203Z,52.30
2022-10-20T08:36:53.929Z,52.00
2022-10-20T08:39:21.753Z,51.20
2022-10-20T08:42:09.311Z,50.60
2022-10-20T08:44:41.273Z,49.40
2022-10-20T08:47:34.752Z,48.60
2022-10-20T08:50:05.319Z,46.70
2022-10-20T08:52:33.079Z,46.90
2022-10-20T08:55:00.113Z,45.90
2022-10-20T08:57:34.556Z,45.60
2022-10-20T09:00:15.637Z,44.70
2022-10-20T09:02:43.017Z,44.20
2022-10-20T09:05:13.962Z,43.90
2022-10-20T09:07:43.990Z,43.40
2022-10-20T09:10:49.070Z,43.20
2022-10-20T09:13:24.279Z,42.70
2022-10-20T09:16:05.069Z,42.50
2022-10-20T09:18:33.606Z,42.00
2022-10-20T09:21:09.895Z,42.10
2022-10-20T09:23:47.617Z,41.50
2022-10-20T09:26:30.723Z,40.90
2022-10-20T09:29:14.670Z,41.30
2022-10-20T09:31:54.734Z,41.50
2022-10-20T09:34:33.328Z,40.90
2022-10-20T09:37:09.368Z,40.90
2022-10-20T09:39:57.003Z,41.10
2022-10-20T09:42:49.005Z,40.30
2022-10-20T09:45:15.785Z,40.10
2022-10-20T09:47:46.847Z,40.30
2022-10-20T09:50:36.687Z,40.00
2022-10-20T09:53:18.539Z,39.00
2022-10-20T09:55:52.783Z,38.90
2022-10-20T09:58:38.813Z,38.70
2022-10-20T10:01:18.232Z,37.60
2022-10-20T10:03:56.056Z,37.10
2022-10-20T10:06:37.863Z,37.50
2022-10-20T10:09:32.620Z,36.50
2022-10-20T10:12:05.052Z,35.80
2022-10-20T10:14:35.301Z,36.20
2022-10-20T10:17:02.530Z,35.40
2022-10-20T10:19:33.874Z,35.30
2022-10-20T10:22:03.045Z,34.80
2022-10-20T10:24:48.527Z,34.20
2022-10-20T10:27:27.637Z,33.00
2022-10-20T10:30:28.509Z,33.10
2022-10-20T10:32:56.049Z,31.50
2022-10-20T10:35:33.535Z,32.30
2022-10-20T10:38:01.097Z,31.20
2022-10-20T10:41:08.767Z,30.80
2022-10-20T10:44:01.468Z,29.70
2022-10-20T10:47:08.214Z,29.70
2022-10-20T10:50:02.025Z,29.00
2022-10-20T10:52:59.331Z,29.40
2022-10-20T10:55:48.698Z,29.00
2022-10-20T10:58:34.635Z,30.10
2022-10-20T11:01:47.328Z,29.80
2022-10-20T11:04:54.350Z,29.60
2022-10-20T11:07:46.280Z,28.90
2022-10-20T11:10:36.336Z,29.20
2022-10-20T11:13:27.037Z,29.30
2022-10-20T11:16:19.798Z,29.20
2022-10-20T11:19:24.727Z,29.10
2022-10-20T11:22:23.264Z,28.80
2022-10-20T11:25:39.040Z,29.00
2022-10-20T11:28:44.671Z,28.80
2022-10-20T11:31:40.420Z,28.40
2022-10-20T11:34:29.968Z,28.20
2022-10-20T11:37:17.504Z,28.00
2022-10-20T11:40:15.402Z,27.60
2022-10-20T11:42:54.129Z,28.00
2022-10-20T11:45:32.122Z,27.70
2022-10-20T11:48:26.526Z,26.90
2022-10-20T11:51:30.275Z,27.30
2022-10-20T11:54:31.559Z,26.90
2022-10-20T11:57:29.558Z,26.30
2022-10-20T12:00:11.379Z,26.00
2022-10-20T12:03:15.206Z,25.90
2022-10-20T12:06:00.548Z,25.60
2022-10-20T12:09:14.150Z,25.40
2022-10-20T12:12:03.742Z,25.50
2022-10-20T12:14:50.190Z,25.20
2022-10-20T12:17:23.706Z,25.30
2022-10-20T12:19:52.011Z,26.30
2022-10-20T12:22:19.023Z,25.40
2022-10-20T12:24:54.924Z,25.10
2022-10-20T12:27:24.165Z,25.00
2022-10-20T12:30:05.832Z,25.20
2022-10-20T12:32:55.708Z,25.20
2022-10-20T12:35:22.779Z,25.50
2022-10-20T12:38:03.897Z,26.00
2022-10-20T12:40:45.704Z,25.90
2022-10-20T12:43:29.648Z,25.70
2022-10-20T12:46:10.205Z,25.40
2022-10-20T12:48:45.006Z,25.30
2022-10-20T12:51:25.035Z,25.60
2022-10-20T12:54:04.824Z,26.00
2022-10-20T12:56:39.745Z,26.20
2022-10-20T12:59:39.638Z,26.10
2022-10-20T13:02:09.503Z,26.20
2022-10-20T13:05:07.264Z,25.90
2022-10-20T13:08:19.761Z,25.40
2022-10-20T13:10:48.072Z,25.70
2022-10-20T13:13:17.822Z,25.40
2022-10-20T13:15:44.508Z,25.40
2022-10-20T13:18:11.874Z,25.50
2022-10-20T13:21:03.313Z,25.60
2022-10-20T13:23:42.310Z,26.00
2022-10-20T13:26:23.301Z,26.00
2022-10-20T13:28:53.615Z,25.90
2022-10-20T13:31:35.690Z,25.90
2022-10-20T13:34:37.035Z,25.50
2022-10-20T13:37:37.153Z,25.50
2022-10-20T13:40:36.667Z,25.50
2022-10-20T13:43:35.952Z,25.70
2022-10-20T13:46:08.642Z,26.10
2022-10-20T13:49:25.468Z,26.00
2022-10-20T13:51:58.047Z,25.90
2022-10-20T13:54:29.420Z,25.80
2022-10-20T13:56:57.630Z,25.90
2022-10-20T13:59:28.440Z,26.00
2022-10-20T14:02:00.607Z,26.10
2022-10-20T14:04:36.501Z,26.20
2022-10-20T14:07:17.446Z,26.30
2022-10-20T14:09:47.629Z,26.60
2022-10-20T14:12:24.695Z,26.90
2022-10-20T14:14:51.584Z,27.30
2022-10-20T14:17:21.937Z,27.50
2022-10-20T14:19:51.541Z,27.90
2022-10-20T14:22:25.345Z,28.30
2022-10-20T14:24:57.536Z,28.70
2022-10-20T14:27:31.367Z,29.20
2022-10-20T14:30:00.231Z,29.70
2022-10-20T14:32:31.092Z,29.90
2022-10-20T14:35:11.810Z,30.10
2022-10-20T14:37:42.150Z,30.40
2022-10-20T14:40:26.629Z,30.80
2022-10-20T14:42:59.814Z,31.40
2022-10-20T14:45:28.894Z,31.70
2022-10-20T14:47:58.921Z,32.10
2022-10-20T14:50:35.394Z,32.60
2022-10-20T14:53:27.311Z,33.20
2022-10-20T14:55:56.320Z,33.80
2022-10-20T14:58:30.311Z,33.80
2022-10-20T15:01:28.901Z,34.30
2022-10-20T15:04:15.690Z,34.80
2022-10-20T15:06:44.292Z,35.20
2022-10-20T15:09:33.063Z,35.40
2022-10-20T15:12:30.255Z,36.00
2022-10-20T15:15:12.605Z,36.40
2022-10-20T15:18:09.600Z,37.10
2022-10-20T15:20:42.361Z,37.40
2022-10-20T15:23:19.415Z,37.90
2022-10-20T15:26:01.298Z,38.20
2022-10-20T15:28:38.732Z,39.00
2022-10-20T15:31:16.994Z,39.30
2022-10-20T15:33:43.870Z,39.60
2022-10-20T15:36:21.130Z,39.90
2022-10-20T15:38:51.652Z,40.50
2022-10-20T15:41:31.427Z,41.00
2022-10-20T15:44:09.920Z,41.50
2022-10-20T15:46:36.768Z,42.00
2022-10-20T15:49:04.085Z,42.00
2022-10-20T15:51:35.349Z,42.60
2022-10-20T15:54:03.046Z,43.00
2022-10-20T15:56:29.867Z,43.30
2022-10-20T15:58:56.916Z,43.70
2022-10-20T16:01:23.888Z,44.00
2022-10-20T16:03:51.196Z,44.50
2022-10-20T16:06:19.497Z,44.90
2022-10-20T16:08:48.875Z,45.40
2022-10-20T16:11:18.377Z,45.80
2022-10-20T16:13:45.329Z,46.20
2022-10-20T16:16:18.138Z,46.60
2022-10-20T16:18:45.388Z,47.20
2022-10-20T16:21:13.020Z,47.50
2022-10-20T16:23:42.245Z,47.90
2022-10-20T16:26:13.272Z,48.30
2022-10-20T16:28:40.146Z,48.80
2022-10-20T16:31:10.912Z,49.70
2022-10-20T16:33:38.215Z,49.70
2022-10-20T16:36:14.998Z,50.00
2022-10-20T16:38:42.885Z,50.40
2022-10-20T16:41:14.910Z,50.80
2022-10-20T16:43:45.769Z,51.30
2022-10-20T16:46:14.736Z,51.70
2022-10-20T16:48:42.891Z,52.10
2022-10-20T16:51:15.975Z,52.50
2022-10-20T16:53:43.622Z,52.90
2022-10-20T16:56:15.169Z,53.20
2022-10-20T16:58:45.317Z,53.60
2022-10-20T17:01:13.771Z,53.80
2022-10-20T17:03:52.617Z,54.30
2022-10-20T17:06:23.371Z,55.10
2022-10-20T17:08:50.557Z,55.20
2022-10-20T17:11:24.658Z,55.50
2022-10-20T17:13:52.309Z,55.90
2022-10-20T17:16:28.613Z,56.30
2022-10-20T17:18:57.713Z,56.90
2022-10-20T17:21:25.321Z,57.00
2022-10-20T17:23:52.373Z,57.40
2022-10-20T17:26:22.507Z,57.70
2022-10-20T17:28:50.120Z,58.20
2022-10-20T17:31:18.237Z,58.30
2022-10-20T17:33:46.555Z,58.80
2022-10-20T17:36:14.113Z,59.10
2022-10-20T17:38:42.677Z,59.40
2022-10-20T17:41:13.607Z,59.50
2022-10-20T17:43:40.748Z,59.90
2022-10-20T17:46:13.003Z,60.00
2022-10-20T17:48:40.216Z,60.50
2022-10-20T17:51:11.343Z,60.50
2022-10-20T17:53:42.077Z,61.10
2022-10-20T17:56:14.570Z,61.20
2022-10-20T17:58:45.407Z,61.60
2022-10-20T18:01:25.282Z,61.60
2022-10-20T18:04:12.690Z,62.00
2022-10-20T18:06:41.478Z,62.60
2022-10-20T18:09:12.010Z,62.20
2022-10-20T18:11:43.202Z,62.40
2022-10-20T18:14:10.132Z,62.50
2022-10-20T18:16:39.554Z,62.80
2022-10-20T18:19:08.337Z,62.90
2022-10-20T18:21:35.481Z,63.10
2022-10-20T18:24:06.346Z,64.10
2022-10-20T18:26:36.126Z,63.50
2022-10-20T18:29:05.607Z,63.70
2022-10-20T18:31:35.844Z,63.80
2022-10-20T18:34:10.677Z,64.00
2022-10-20T18:36:41.882Z,64.20
2022-10-20T18:39:14.397Z,64.30
2022-10-20T18:41:43.140Z,64.20
2022-10-20T18:44:17.548Z,64.60
2022-10-20T18:46:46.276Z,64.80
2022-10-20T18:49:16.306Z,64.70
2022-10-20T18:51:46.377Z,64.70
2022-10-20T18:54:14.820Z,65.00
2022-10-20T18:56:42.811Z,65.10
2022-10-20T18:59:14.107Z,65.10
2022-10-20T19:01:44.593Z,65.40
2022-10-20T19:04:12.693Z,65.10
2022-10-20T19:06:48.449Z,65.30
2022-10-20T19:09:20.396Z,65.50
2022-10-20T19:14:20.750Z,65.60
2022-10-20T19:16:48.823Z,65.60
2022-10-20T19:19:16.318Z,65.60
2022-10-20T19:21:43.359Z,65.40
2022-10-20T19:24:22.295Z,65.50
2022-10-20T19:27:24.586Z,65.80
2022-10-20T19:29:44.802Z,65.80
2022-10-20T19:32:12.381Z,65.50
2022-10-20T19:34:41.132Z,65.50
2022-10-20T19:37:09.614Z,65.70
2022-10-20T19:39:40.421Z,65.80
2022-10-20T19:42:09.634Z,65.70
2022-10-20T19:44:37.873Z,65.60
2022-10-20T19:47:06.441Z,65.70
2022-10-20T19:49:34.321Z,65.70
2022-10-20T19:52:01.400Z,65.60
2022-10-20T19:54:28.830Z,65.80
2022-10-20T19:56:55.716Z,65.80
2022-10-20T19:59:22.695Z,66.00
2022-10-20T20:01:49.931Z,65.80
2022-10-20T20:04:16.840Z,65.70
2022-10-20T20:06:44.668Z,65.70
2022-10-20T20:09:15.442Z,65.80
2022-10-20T20:11:42.961Z,65.80
2022-10-20T20:14:18.946Z,65.80
2022-10-20T20:16:47.351Z,66.10
2022-10-20T20:19:16.022Z,66.80
2022-10-20T20:21:43.156Z,66.10
2022-10-20T20:24:12.208Z,66.30
2022-10-20T20:26:39.230Z,66.50
2022-10-20T20:29:06.321Z,66.60
2022-10-20T20:31:34.046Z,66.60
2022-10-20T20:34:01.017Z,66.80
2022-10-20T20:36:28.396Z,66.90
2022-10-20T20:38:58.139Z,67.10
2022-10-20T20:41:31.016Z,67.30
2022-10-20T20:43:58.310Z,67.40
2022-10-20T20:46:30.942Z,67.70
2022-10-20T20:48:58.460Z,68.00
2022-10-20T20:51:27.030Z,68.10
2022-10-20T20:53:53.929Z,68.30
2022-10-20T20:56:23.201Z,68.40
2022-10-20T20:58:55.320Z,68.60
2022-10-20T21:01:27.381Z,68.80
2022-10-20T21:04:01.265Z,68.90
2022-10-20T21:06:33.680Z,69.10
2022-10-20T21:09:01.826Z,69.00
2022-10-20T21:11:30.246Z,69.00
2022-10-20T21:13:58.918Z,69.80
2022-10-20T21:16:33.449Z,69.20
2022-10-20T21:19:08.323Z,69.30
2022-10-20T21:21:53.444Z,69.30
2022-10-20T21:24:20.475Z,69.50
2022-10-20T21:26:48.883Z,69.30
2022-10-20T21:29:16.287Z,69.30
2022-10-20T21:31:43.459Z,69.30
2022-10-20T21:34:11.454Z,69.20
2022-10-20T21:36:40.313Z,69.20
2022-10-20T21:39:12.001Z,69.20
2022-10-20T21:41:39.689Z,69.30
2022-10-20T21:44:08.119Z,69.10
2022-10-20T21:46:53.529Z,69.10
2022-10-20T21:49:25.257Z,69.40
2022-10-20T21:51:55.750Z,69.10
2022-10-20T21:54:26.517Z,68.90
2022-10-20T21:56:58.006Z,68.90
2022-10-20T21:59:28.172Z,68.70
2022-10-20T22:01:58.947Z,68.70
2022-10-20T22:04:28.700Z,68.60
2022-10-20T22:06:57.260Z,68.60
2022-10-20T22:09:24.347Z,68.50
2022-10-20T22:11:59.511Z,68.40
2022-10-20T22:14:26.683Z,68.30
2022-10-20T22:16:55.573Z,68.10
2022-10-20T22:19:24.731Z,68.10
2022-10-20T22:21:53.672Z,67.90
2022-10-20T22:24:21.842Z,67.60
2022-10-20T22:26:51.600Z,67.50
2022-10-20T22:29:21.964Z,67.30
2022-10-20T22:31:49.607Z,67.20
2022-10-20T22:34:16.690Z,67.10
2022-10-20T22:36:44.370Z,66.80
2022-10-20T22:41:39.591Z,67.00
2022-10-20T22:44:06.881Z,66.80
2022-10-20T22:46:34.150Z,66.80
2022-10-20T22:49:01.442Z,67.30
2022-10-20T22:51:28.323Z,67.90
2022-10-20T22:53:55.219Z,69.00
2022-10-20T22:56:23.599Z,69.80
2022-10-20T22:58:53.637Z,70.50
2022-10-20T23:01:22.541Z,71.40
2022-10-20T23:04:14.878Z,72.00
2022-10-20T23:06:41.738Z,72.00
2022-10-20T23:09:09.620Z,73.00
2022-10-20T23:11:37.018Z,74.00
2022-10-20T23:14:04.061Z,74.50
2022-10-20T23:16:30.955Z,75.10
2022-10-20T23:18:57.878Z,75.90
2022-10-20T23:21:24.799Z,76.40
2022-10-20T23:23:51.651Z,77.00
2022-10-20T23:26:18.490Z,77.50
2022-10-20T23:28:48.767Z,78.20
2022-10-20T23:31:21.760Z,78.50
2022-10-20T23:33:53.448Z,79.40
2022-10-20T23:36:21.196Z,79.90
2022-10-20T23:38:48.119Z,80.50
2022-10-20T23:41:15.269Z,80.90
2022-10-20T23:43:42.114Z,81.40
2022-10-20T23:46:12.058Z,81.70
2022-10-20T23:48:39.706Z,81.90
2022-10-20T23:51:08.204Z,82.20
2022-10-20T23:53:36.073Z,82.40
2022-10-20T23:56:03.325Z,82.70
2022-10-20T23:58:30.570Z,82.90
